Time;durP1;ratioP1;P1;durP2;ratioP2;P2;SDS_P1;SDS_P2;PMS_P1;PMS_P2;Temp;Humidity;BMP_temperature;BMP_pressure;BME280_temperature;BME280_humidity;BME280_pressure;Samples;Min_cycle;Max_cycle;Signal;HPM_P1;HPM_P2
2023/09/04 00:00:32;;;;;;;;;;;24.00;51.00;;;;;;4992077;28;87784;-54
2023/09/04 00:02:58;;;;;;;;;;;24.00;51.00;;;;;;4992913;28;88094;-49
2023/09/04 00:05:23;;;;;;;;;;;24.00;51.00;;;;;;4989043;28;87155;-51
2023/09/04 00:07:49;;;;;;;;;;;24.00;51.00;;;;;;5007556;28;90606;-46
2023/09/04 00:10:15;;;;;;;;;;;24.00;51.00;;;;;;4989976;28;88249;-53
2023/09/04 00:12:40;;;;;;;;;;;24.00;51.00;;;;;;4993222;28;86302;-50
2023/09/04 00:15:06;;;;;;;;;;;24.00;51.10;;;;;;4995121;28;87134;-51
2023/09/04 00:17:32;;;;;;;;;;;23.90;51.20;;;;;;4990330;28;87057;-48
2023/09/04 00:19:58;;;;;;;;;;;23.90;51.10;;;;;;4989800;28;87988;-53
2023/09/04 00:22:23;;;;;;;;;;;23.90;51.10;;;;;;4990900;28;88030;-50
2023/09/04 00:24:49;;;;;;;;;;;23.90;51.20;;;;;;4992705;28;87182;-53
2023/09/04 00:27:14;;;;;;;;;;;23.90;51.30;;;;;;4991163;28;87998;-51
2023/09/04 00:29:40;;;;;;;;;;;23.90;51.30;;;;;;4996957;28;90887;-55
2023/09/04 00:32:06;;;;;;;;;;;23.90;51.40;;;;;;4993156;28;87191;-53
2023/09/04 00:34:32;;;;;;;;;;;23.90;51.30;;;;;;4994677;28;87384;-48
2023/09/04 00:36:58;;;;;;;;;;;23.90;51.40;;;;;;4997291;28;87136;-48
2023/09/04 00:39:23;;;;;;;;;;;23.80;51.40;;;;;;4996280;28;87061;-50
2023/09/04 00:41:49;;;;;;;;;;;23.80;51.40;;;;;;4994052;28;89546;-54
2023/09/04 00:44:14;;;;;;;;;;;23.80;51.40;;;;;;4993624;28;87989;-53
2023/09/04 00:46:41;;;;;;;;;;;23.80;51.50;;;;;;4996015;28;88025;-52
2023/09/04 00:49:06;;;;;;;;;;;23.80;51.50;;;;;;4991200;28;88270;-49
2023/09/04 00:51:32;;;;;;;;;;;23.80;51.50;;;;;;4995301;28;87455;-49
2023/09/04 00:53:57;;;;;;;;;;;23.80;51.50;;;;;;4993363;28;87568;-50
2023/09/04 00:56:24;;;;;;;;;;;23.70;51.60;;;;;;4994812;28;88606;-48
2023/09/04 00:58:50;;;;;;;;;;;23.70;51.60;;;;;;4998619;28;87107;-50
2023/09/04 01:01:15;;;;;;;;;;;23.70;51.60;;;;;;4993427;28;87514;-51
2023/09/04 01:03:41;;;;;;;;;;;23.70;51.60;;;;;;4995243;28;87208;-54
2023/09/04 01:06:07;;;;;;;;;;;23.70;51.70;;;;;;4993554;28;88354;-52
2023/09/04 01:08:33;;;;;;;;;;;23.70;51.70;;;;;;4994530;28;90499;-51
2023/09/04 01:11:04;;;;;;;;;;;23.70;51.70;;;;;;4994632;28;87714;-50
2023/09/04 01:13:37;;;;;;;;;;;23.70;51.70;;;;;;5000385;28;89574;-52
2023/09/04 01:16:04;;;;;;;;;;;23.70;51.70;;;;;;4993354;28;89923;-51
2023/09/04 01:18:30;;;;;;;;;;;23.60;51.70;;;;;;4995636;28;87002;-53
2023/09/04 01:20:59;;;;;;;;;;;23.60;51.80;;;;;;4994422;28;88082;-50
2023/09/04 01:23:25;;;;;;;;;;;23.60;51.30;;;;;;4992407;28;87111;-49
2023/09/04 01:26:11;;;;;;;;;;;23.60;51.80;;;;;;4996016;28;86533;-49
2023/09/04 01:28:41;;;;;;;;;;;23.60;51.90;;;;;;4992473;28;87996;-52
2023/09/04 01:31:14;;;;;;;;;;;23.60;51.90;;;;;;4992976;28;87538;-53
2023/09/04 01:33:42;;;;;;;;;;;23.60;51.40;;;;;;4994305;28;89800;-51
2023/09/04 01:36:10;;;;;;;;;;;23.50;51.90;;;;;;4993532;28;88226;-49
2023/09/04 01:38:36;;;;;;;;;;;23.50;51.90;;;;;;4992825;28;87138;-49
2023/09/04 01:41:07;;;;;;;;;;;23.50;52.50;;;;;;4993394;28;89355;-51
2023/09/04 01:43:33;;;;;;;;;;;23.50;51.90;;;;;;4997585;28;88840;-50
2023/09/04 01:45:58;;;;;;;;;;;23.50;51.40;;;;;;4993599;28;89207;-51
2023/09/04 01:48:24;;;;;;;;;;;23.50;52.00;;;;;;4992158;28;88389;-51
2023/09/04 01:50:49;;;;;;;;;;;23.50;52.10;;;;;;4993476;28;86172;-50
2023/09/04 01:53:16;;;;;;;;;;;23.50;52.00;;;;;;4993846;28;87099;-51
2023/09/04 01:55:42;;;;;;;;;;;23.50;52.10;;;;;;4992319;28;88169;-53
2023/09/04 01:58:07;;;;;;;;;;;23.50;52.10;;;;;;4991835;28;87938;-48
2023/09/04 02:00:33;;;;;;;;;;;23.40;52.10;;;;;;4993728;28;87884;-50
2023/09/04 02:02:58;;;;;;;;;;;23.40;52.10;;;;;;4994680;28;88444;-49
2023/09/04 02:05:24;;;;;;;;;;;23.40;52.20;;;;;;4996683;28;87013;-51
2023/09/04 02:07:49;;;;;;;;;;;23.40;52.20;;;;;;4992529;28;87464;-50
2023/09/04 02:10:15;;;;;;;;;;;23.40;52.10;;;;;;4994867;28;87262;-48
2023/09/04 02:12:40;;;;;;;;;;;23.40;52.20;;;;;;4992584;28;88422;-50
2023/09/04 02:15:06;;;;;;;;;;;23.40;52.20;;;;;;4993781;28;88585;-52
2023/09/04 02:17:32;;;;;;;;;;;23.40;52.30;;;;;;4994788;28;87151;-53
2023/09/04 02:19:59;;;;;;;;;;;23.40;52.30;;;;;;4992538;28;87768;-52
2023/09/04 02:22:24;;;;;;;;;;;23.40;52.30;;;;;;4991641;28;89287;-49
2023/09/04 02:24:50;;;;;;;;;;;23.40;52.40;;;;;;4997197;28;86922;-52
2023/09/04 02:27:15;;;;;;;;;;;23.30;52.30;;;;;;4992052;28;88777;-54
2023/09/04 02:29:41;;;;;;;;;;;23.30;52.40;;;;;;4993159;28;87147;-48
2023/09/04 02:32:06;;;;;;;;;;;23.20;52.30;;;;;;4994300;28;87771;-49
2023/09/04 02:34:32;;;;;;;;;;;23.20;52.40;;;;;;4994484;28;88218;-53
2023/09/04 02:36:58;;;;;;;;;;;23.20;52.40;;;;;;4991492;28;87062;-51
2023/09/04 02:39:24;;;;;;;;;;;23.20;52.70;;;;;;4994450;28;89241;-53
2023/09/04 02:41:50;;;;;;;;;;;23.20;52.40;;;;;;4991758;28;87770;-50
2023/09/04 02:44:15;;;;;;;;;;;23.20;52.40;;;;;;4992646;28;87238;-53
2023/09/04 02:46:41;;;;;;;;;;;23.20;52.40;;;;;;4996347;28;88044;-49
2023/09/04 02:49:06;;;;;;;;;;;23.20;52.50;;;;;;4991084;28;87486;-54
2023/09/04 02:51:32;;;;;;;;;;;23.20;52.50;;;;;;4991181;28;87718;-51
2023/09/04 02:53:57;;;;;;;;;;;23.10;52.50;;;;;;4991209;28;88500;-51
2023/09/04 02:56:23;;;;;;;;;;;23.20;52.60;;;;;;4993339;28;87199;-53
2023/09/04 02:58:49;;;;;;;;;;;23.10;52.50;;;;;;4993234;28;87474;-51
2023/09/04 03:01:16;;;;;;;;;;;23.10;52.50;;;;;;4991236;28;87796;-51
2023/09/04 03:03:41;;;;;;;;;;;23.10;52.60;;;;;;4993317;28;86368;-50
2023/09/04 03:06:08;;;;;;;;;;;23.10;52.60;;;;;;4990603;28;87129;-49
2023/09/04 03:08:33;;;;;;;;;;;23.10;52.60;;;;;;4996255;28;89144;-52
2023/09/04 03:10:59;;;;;;;;;;;23.10;52.70;;;;;;4992686;28;88055;-49
2023/09/04 03:13:24;;;;;;;;;;;23.00;52.60;;;;;;4993048;28;88275;-54
2023/09/04 03:15:50;;;;;;;;;;;23.00;52.60;;;;;;4991622;28;87121;-53
2023/09/04 03:18:15;;;;;;;;;;;23.00;52.60;;;;;;4993341;28;88736;-53
2023/09/04 03:20:41;;;;;;;;;;;23.00;52.60;;;;;;4991075;28;88637;-53
2023/09/04 03:23:08;;;;;;;;;;;23.00;52.60;;;;;;4993395;28;87463;-53
2023/09/04 03:25:35;;;;;;;;;;;23.00;52.70;;;;;;4991762;28;87543;-52
2023/09/04 03:28:01;;;;;;;;;;;23.00;52.70;;;;;;4991241;28;88900;-54
2023/09/04 03:30:27;;;;;;;;;;;23.00;52.80;;;;;;4994862;28;87224;-53
2023/09/04 03:32:52;;;;;;;;;;;22.90;52.80;;;;;;4992177;28;88616;-49
2023/09/04 03:35:18;;;;;;;;;;;22.90;52.80;;;;;;4993501;28;87887;-55
2023/09/04 03:37:43;;;;;;;;;;;22.90;52.80;;;;;;4992922;28;89494;-54
2023/09/04 03:40:18;;;;;;;;;;;22.90;52.80;;;;;;4992035;28;88086;-49
2023/09/04 03:42:44;;;;;;;;;;;22.90;52.90;;;;;;4990956;28;87231;-53
2023/09/04 03:45:09;;;;;;;;;;;22.90;52.90;;;;;;4992336;28;87743;-51
2023/09/04 03:47:35;;;;;;;;;;;22.90;52.90;;;;;;4993118;28;87883;-49
2023/09/04 03:50:00;;;;;;;;;;;22.90;52.90;;;;;;4992547;28;87125;-53
2023/09/04 03:52:26;;;;;;;;;;;22.80;52.80;;;;;;4994240;28;88930;-51
2023/09/04 03:54:51;;;;;;;;;;;22.80;52.90;;;;;;4990649;28;87637;-55
2023/09/04 03:57:17;;;;;;;;;;;22.80;52.90;;;;;;4993442;28;87193;-51
2023/09/04 03:59:42;;;;;;;;;;;22.80;52.90;;;;;;4990966;28;89319;-49
2023/09/04 04:02:08;;;;;;;;;;;22.80;53.00;;;;;;4991485;28;87140;-54
2023/09/04 04:04:34;;;;;;;;;;;22.80;52.90;;;;;;4989118;28;88892;-50
2023/09/04 04:06:59;;;;;;;;;;;22.80;53.00;;;;;;4989169;28;87598;-49
2023/09/04 04:09:25;;;;;;;;;;;22.80;52.90;;;;;;4994119;28;87196;-52
2023/09/04 04:11:50;;;;;;;;;;;22.70;52.90;;;;;;4997914;28;87561;-52
2023/09/04 04:14:16;;;;;;;;;;;22.70;53.00;;;;;;4991760;28;87492;-51
2023/09/04 04:16:42;;;;;;;;;;;22.70;53.00;;;;;;4996244;28;88007;-50
2023/09/04 04:19:07;;;;;;;;;;;22.70;53.00;;;;;;4993717;28;88170;-52
2023/09/04 04:21:32;;;;;;;;;;;22.70;53.10;;;;;;4994417;28;87256;-54
2023/09/04 04:23:58;;;;;;;;;;;22.70;53.10;;;;;;4992326;28;89928;-51
2023/09/04 04:26:24;;;;;;;;;;;22.60;53.10;;;;;;4991368;28;88307;-51
2023/09/04 04:28:50;;;;;;;;;;;22.70;53.10;;;;;;4994841;28;87053;-49
2023/09/04 04:31:15;;;;;;;;;;;22.70;53.10;;;;;;4997356;28;87166;-47
2023/09/04 04:33:41;;;;;;;;;;;22.60;53.10;;;;;;4993286;28;90482;-48
2023/09/04 04:36:07;;;;;;;;;;;22.60;53.10;;;;;;4992421;28;89010;-52
2023/09/04 04:38:32;;;;;;;;;;;22.60;53.10;;;;;;4996038;28;88326;-49
2023/09/04 04:40:58;;;;;;;;;;;22.60;53.20;;;;;;4992221;28;88177;-50
2023/09/04 04:43:23;;;;;;;;;;;22.60;53.30;;;;;;4988885;28;89563;-50
2023/09/04 04:45:49;;;;;;;;;;;22.50;53.30;;;;;;4989778;28;87400;-50
2023/09/04 04:48:14;;;;;;;;;;;22.50;53.20;;;;;;4994894;28;88438;-49
2023/09/04 04:50:40;;;;;;;;;;;22.50;53.30;;;;;;4991587;28;88982;-50
2023/09/04 04:53:05;;;;;;;;;;;22.50;53.30;;;;;;4989613;28;88286;-49
2023/09/04 04:55:31;;;;;;;;;;;22.50;53.30;;;;;;4994159;28;87240;-52
2023/09/04 04:57:56;;;;;;;;;;;22.50;53.30;;;;;;4992714;28;88173;-52
2023/09/04 05:00:22;;;;;;;;;;;22.50;53.30;;;;;;4996676;28;87339;-54
2023/09/04 05:02:47;;;;;;;;;;;22.50;53.30;;;;;;4994952;28;87142;-53
2023/09/04 05:05:13;;;;;;;;;;;22.50;53.30;;;;;;4992826;28;87633;-55
2023/09/04 05:07:41;;;;;;;;;;;22.50;53.30;;;;;;4992203;28;87128;-50
2023/09/04 05:10:07;;;;;;;;;;;22.40;53.30;;;;;;4994320;28;89288;-50
2023/09/04 05:12:32;;;;;;;;;;;22.40;53.40;;;;;;4991842;28;91129;-53
2023/09/04 05:14:58;;;;;;;;;;;22.40;53.50;;;;;;4994768;28;87194;-52
2023/09/04 05:17:23;;;;;;;;;;;22.40;53.40;;;;;;4995600;28;87713;-51
2023/09/04 05:19:49;;;;;;;;;;;22.40;53.40;;;;;;4989495;28;87238;-54
2023/09/04 05:22:14;;;;;;;;;;;22.40;53.40;;;;;;4991734;28;87738;-54
2023/09/04 05:24:40;;;;;;;;;;;22.30;53.40;;;;;;4991932;28;88304;-50
2023/09/04 05:27:06;;;;;;;;;;;22.40;52.90;;;;;;4995594;28;87355;-50
2023/09/04 05:29:31;;;;;;;;;;;22.40;53.40;;;;;;4988488;28;87676;-55
2023/09/04 05:31:57;;;;;;;;;;;22.40;53.50;;;;;;4988191;28;89350;-50
2023/09/04 05:34:22;;;;;;;;;;;22.30;53.40;;;;;;4992564;28;87081;-52
2023/09/04 05:36:48;;;;;;;;;;;22.30;53.40;;;;;;4992871;28;88611;-47
2023/09/04 05:39:13;;;;;;;;;;;22.30;53.40;;;;;;4994163;28;88561;-50
2023/09/04 05:41:39;;;;;;;;;;;22.30;53.30;;;;;;4988531;28;87648;-49
2023/09/04 05:44:04;;;;;;;;;;;22.30;53.40;;;;;;4993894;28;87618;-51
2023/09/04 05:46:30;;;;;;;;;;;22.30;53.40;;;;;;4992231;28;87161;-50
2023/09/04 05:48:56;;;;;;;;;;;22.20;53.40;;;;;;4931835;28;1670171;-51
2023/09/04 05:51:21;;;;;;;;;;;22.20;53.40;;;;;;4991879;28;88292;-50
2023/09/04 05:53:47;;;;;;;;;;;22.20;53.40;;;;;;4995317;28;86263;-48
2023/09/04 05:56:13;;;;;;;;;;;22.20;53.40;;;;;;4989536;28;88981;-48
2023/09/04 05:58:45;;;;;;;;;;;22.20;53.40;;;;;;4989254;28;89471;-51
2023/09/04 06:01:11;;;;;;;;;;;22.20;53.40;;;;;;4996265;28;88116;-49
2023/09/04 06:03:37;;;;;;;;;;;22.20;53.40;;;;;;4994333;28;88187;-53
2023/09/04 06:06:03;;;;;;;;;;;22.20;53.50;;;;;;4990097;28;87330;-53
2023/09/04 06:08:29;;;;;;;;;;;22.20;53.40;;;;;;4990495;28;88133;-50
2023/09/04 06:10:55;;;;;;;;;;;22.20;53.30;;;;;;4991816;28;88681;-53
2023/09/04 06:13:20;;;;;;;;;;;22.10;53.30;;;;;;4996410;28;88441;-51
2023/09/04 06:15:49;;;;;;;;;;;22.10;53.40;;;;;;4991156;28;87609;-51
2023/09/04 06:18:14;;;;;;;;;;;22.10;53.40;;;;;;4991397;28;87610;-51
2023/09/04 06:20:40;;;;;;;;;;;22.10;53.40;;;;;;4996682;28;87208;-53
2023/09/04 06:23:06;;;;;;;;;;;22.10;53.40;;;;;;4994377;28;88070;-53
2023/09/04 06:25:32;;;;;;;;;;;22.10;53.50;;;;;;4992792;28;89415;-52
2023/09/04 06:27:58;;;;;;;;;;;22.10;53.50;;;;;;4993398;28;88585;-50
2023/09/04 06:30:23;;;;;;;;;;;22.10;53.40;;;;;;4991858;28;88535;-53
2023/09/04 06:32:49;;;;;;;;;;;22.10;53.40;;;;;;4989738;28;87701;-56
2023/09/04 06:35:14;;;;;;;;;;;22.10;53.30;;;;;;4993197;28;87611;-49
2023/09/04 06:37:40;;;;;;;;;;;22.00;53.60;;;;;;4990376;28;87665;-49
2023/09/04 06:40:06;;;;;;;;;;;22.00;53.40;;;;;;4994489;28;87606;-53
2023/09/04 06:42:31;;;;;;;;;;;22.00;53.30;;;;;;4991671;28;88238;-50
2023/09/04 06:44:57;;;;;;;;;;;22.00;53.40;;;;;;4994415;28;87860;-54
2023/09/04 06:47:22;;;;;;;;;;;22.00;53.40;;;;;;4994370;28;87767;-52
2023/09/04 06:49:48;;;;;;;;;;;22.00;53.40;;;;;;4993247;28;91330;-53
2023/09/04 06:52:13;;;;;;;;;;;22.00;53.50;;;;;;4990832;28;87448;-49
2023/09/04 06:54:39;;;;;;;;;;;22.00;53.40;;;;;;4988564;28;87866;-51
2023/09/04 06:57:04;;;;;;;;;;;22.00;53.50;;;;;;4992542;28;88748;-53
2023/09/04 06:59:30;;;;;;;;;;;22.00;53.50;;;;;;4990656;28;87013;-49
2023/09/04 07:01:56;;;;;;;;;;;22.00;53.50;;;;;;4992075;28;89187;-51
2023/09/04 07:04:21;;;;;;;;;;;22.00;53.50;;;;;;4994170;28;87468;-53
2023/09/04 07:06:47;;;;;;;;;;;22.00;53.50;;;;;;4993801;28;88060;-49
2023/09/04 07:09:12;;;;;;;;;;;21.90;53.50;;;;;;4990501;28;88352;-53
2023/09/04 07:11:38;;;;;;;;;;;21.90;53.50;;;;;;4991385;28;87841;-51
2023/09/04 07:14:03;;;;;;;;;;;22.00;53.50;;;;;;4993472;28;88095;-50
2023/09/04 07:16:31;;;;;;;;;;;21.90;53.60;;;;;;4992425;28;88118;-49
2023/09/04 07:18:57;;;;;;;;;;;21.90;53.70;;;;;;4994396;28;88828;-52
2023/09/04 07:21:22;;;;;;;;;;;21.90;53.70;;;;;;4988457;28;87613;-50
2023/09/04 07:23:48;;;;;;;;;;;21.90;53.60;;;;;;4990039;28;88232;-50
2023/09/04 07:26:13;;;;;;;;;;;21.90;53.70;;;;;;4993932;28;87296;-53
2023/09/04 07:28:39;;;;;;;;;;;21.90;53.60;;;;;;4991006;28;87178;-46
2023/09/04 07:31:12;;;;;;;;;;;21.90;53.60;;;;;;4992834;28;86494;-51
2023/09/04 07:33:37;;;;;;;;;;;21.90;53.70;;;;;;4993600;28;87476;-51
2023/09/04 07:36:03;;;;;;;;;;;21.90;53.70;;;;;;4990823;28;88471;-53
2023/09/04 07:38:29;;;;;;;;;;;21.90;53.60;;;;;;4991399;28;88761;-51
2023/09/04 07:41:04;;;;;;;;;;;21.90;53.60;;;;;;4990997;28;88892;-51
2023/09/04 07:43:30;;;;;;;;;;;21.90;53.60;;;;;;4993025;28;88112;-49
2023/09/04 07:45:56;;;;;;;;;;;21.80;53.60;;;;;;4993951;28;87253;-53
2023/09/04 07:48:22;;;;;;;;;;;21.80;53.60;;;;;;4988385;28;87292;-49
2023/09/04 07:50:48;;;;;;;;;;;21.80;53.60;;;;;;4992596;28;87762;-52
2023/09/04 07:53:14;;;;;;;;;;;21.80;53.70;;;;;;4988947;28;88862;-47
2023/09/04 07:55:41;;;;;;;;;;;21.80;53.70;;;;;;4988588;28;87216;-54
2023/09/04 07:58:07;;;;;;;;;;;21.70;53.80;;;;;;4986954;28;87557;-55
2023/09/04 08:00:33;;;;;;;;;;;21.70;53.70;;;;;;4993334;28;87850;-52
2023/09/04 08:02:59;;;;;;;;;;;21.70;53.80;;;;;;4990362;28;89798;-53
2023/09/04 08:05:25;;;;;;;;;;;21.70;53.80;;;;;;4989842;28;87185;-51
2023/09/04 08:07:50;;;;;;;;;;;21.70;53.80;;;;;;4988085;28;87636;-48
2023/09/04 08:10:16;;;;;;;;;;;21.70;53.70;;;;;;4994986;28;87249;-46
2023/09/04 08:12:42;;;;;;;;;;;21.70;53.70;;;;;;4991263;28;87870;-50
2023/09/04 08:15:08;;;;;;;;;;;21.70;53.70;;;;;;4987533;28;88774;-52
2023/09/04 08:17:34;;;;;;;;;;;21.70;53.80;;;;;;4988555;28;88298;-54
2023/09/04 08:20:00;;;;;;;;;;;21.60;53.80;;;;;;4993430;28;88183;-53
2023/09/04 08:22:26;;;;;;;;;;;21.60;53.80;;;;;;4993287;28;89899;-47
2023/09/04 08:24:53;;;;;;;;;;;21.60;53.80;;;;;;4986511;28;87335;-49
2023/09/04 08:27:19;;;;;;;;;;;21.60;53.80;;;;;;4988964;28;88073;-50
2023/09/04 08:29:44;;;;;;;;;;;21.60;53.80;;;;;;4995098;28;89985;-51
2023/09/04 08:32:10;;;;;;;;;;;21.60;53.80;;;;;;4990971;28;88902;-53
2023/09/04 08:34:35;;;;;;;;;;;21.60;53.80;;;;;;4989713;28;87682;-48
2023/09/04 08:37:01;;;;;;;;;;;21.60;53.80;;;;;;4990764;28;87393;-52
2023/09/04 08:39:26;;;;;;;;;;;21.50;53.70;;;;;;4990771;28;89338;-54
2023/09/04 08:41:52;;;;;;;;;;;21.50;53.70;;;;;;4995261;28;89359;-53
2023/09/04 08:44:18;;;;;;;;;;;21.50;53.70;;;;;;4991721;28;86449;-51
2023/09/04 08:46:45;;;;;;;;;;;21.50;53.80;;;;;;4992037;28;87025;-50
2023/09/04 08:49:11;;;;;;;;;;;21.50;53.70;;;;;;4990953;28;88797;-51
2023/09/04 08:51:36;;;;;;;;;;;21.60;53.60;;;;;;4988899;28;88358;-51
2023/09/04 08:54:02;;;;;;;;;;;21.50;53.60;;;;;;4989172;28;88405;-52
2023/09/04 08:56:29;;;;;;;;;;;21.50;53.70;;;;;;4996641;28;86929;-50
2023/09/04 08:58:55;;;;;;;;;;;21.50;53.70;;;;;;4995696;28;87738;-48
2023/09/04 09:01:21;;;;;;;;;;;21.50;53.60;;;;;;4990692;28;88948;-51
2023/09/04 09:03:47;;;;;;;;;;;21.50;53.60;;;;;;4990817;28;87248;-53
2023/09/04 09:06:13;;;;;;;;;;;21.50;53.60;;;;;;4995046;28;87531;-53
2023/09/04 09:08:38;;;;;;;;;;;21.50;53.60;;;;;;4992749;28;87517;-54
2023/09/04 09:11:04;;;;;;;;;;;21.50;53.60;;;;;;4990274;28;87193;-54
2023/09/04 09:13:30;;;;;;;;;;;21.50;53.70;;;;;;4993037;28;87607;-53
2023/09/04 09:15:55;;;;;;;;;;;21.50;53.70;;;;;;4994747;28;88110;-51
2023/09/04 09:18:53;;;;;;;;;;;21.40;53.60;;;;;;4994733;28;89640;-51
2023/09/04 09:21:28;;;;;;;;;;;21.50;53.60;;;;;;4984920;28;89332;-50
2023/09/04 09:24:07;;;;;;;;;;;21.40;53.60;;;;;;4993742;28;87119;-53
2023/09/04 09:26:33;;;;;;;;;;;21.40;53.60;;;;;;4995211;28;87717;-55
2023/09/04 09:29:02;;;;;;;;;;;21.40;53.50;;;;;;4996470;28;90146;-47
2023/09/04 09:31:28;;;;;;;;;;;21.40;53.50;;;;;;4990772;28;87218;-49
2023/09/04 09:33:53;;;;;;;;;;;21.40;53.50;;;;;;4995619;28;87795;-48
2023/09/04 09:36:19;;;;;;;;;;;21.40;53.50;;;;;;4998161;28;88290;-49
2023/09/04 09:38:45;;;;;;;;;;;21.40;53.50;;;;;;4994469;28;88259;-50
2023/09/04 09:41:12;;;;;;;;;;;21.40;53.50;;;;;;4990936;28;90372;-52
2023/09/04 09:43:37;;;;;;;;;;;21.40;53.60;;;;;;4993241;28;87381;-49
2023/09/04 09:46:03;;;;;;;;;;;21.40;53.60;;;;;;4994092;28;87640;-55
2023/09/04 09:48:30;;;;;;;;;;;21.40;53.60;;;;;;4991151;28;88990;-51
2023/09/04 09:50:56;;;;;;;;;;;21.40;53.60;;;;;;4996407;28;87089;-52
2023/09/04 09:53:22;;;;;;;;;;;21.40;53.70;;;;;;4992327;28;87555;-56
2023/09/04 09:55:48;;;;;;;;;;;21.30;53.70;;;;;;4993789;28;87697;-55
2023/09/04 09:58:14;;;;;;;;;;;21.30;53.70;;;;;;4998933;28;86485;-51
2023/09/04 10:00:40;;;;;;;;;;;21.30;53.70;;;;;;4991865;28;88282;-49
2023/09/04 10:03:06;;;;;;;;;;;21.30;53.70;;;;;;4996394;28;88985;-49
2023/09/04 10:05:32;;;;;;;;;;;21.30;53.70;;;;;;4994892;28;88972;-52
2023/09/04 10:08:01;;;;;;;;;;;21.30;53.80;;;;;;4994253;28;88321;-55
2023/09/04 10:10:28;;;;;;;;;;;21.30;54.40;;;;;;4992427;28;87024;-51
2023/09/04 10:12:59;;;;;;;;;;;21.20;53.70;;;;;;4991730;28;87636;-51
2023/09/04 10:15:25;;;;;;;;;;;21.20;53.70;;;;;;4990469;28;88262;-56
2023/09/04 10:18:01;;;;;;;;;;;21.20;53.60;;;;;;4991960;28;87131;-51
2023/09/04 10:20:27;;;;;;;;;;;21.20;53.60;;;;;;4996439;28;89030;-46
2023/09/04 10:23:09;;;;;;;;;;;21.20;53.70;;;;;;4998228;28;86461;-51
2023/09/04 10:25:35;;;;;;;;;;;21.20;53.60;;;;;;4996778;28;87183;-52
2023/09/04 10:28:06;;;;;;;;;;;21.20;53.70;;;;;;4990135;28;88464;-52
2023/09/04 10:30:34;;;;;;;;;;;21.20;53.60;;;;;;4995489;28;88035;-55
2023/09/04 10:33:00;;;;;;;;;;;21.20;53.70;;;;;;4985415;28;90199;-48
2023/09/04 10:35:26;;;;;;;;;;;21.20;53.90;;;;;;4990399;28;87965;-48
2023/09/04 10:37:52;;;;;;;;;;;21.20;53.90;;;;;;4991105;28;87233;-51
2023/09/04 10:40:17;;;;;;;;;;;21.10;53.80;;;;;;4999630;28;87340;-51
2023/09/04 10:42:44;;;;;;;;;;;21.10;53.70;;;;;;4991340;28;87309;-52
2023/09/04 10:45:13;;;;;;;;;;;21.20;53.80;;;;;;4988109;28;87553;-51
2023/09/04 10:47:46;;;;;;;;;;;21.10;53.80;;;;;;4992874;28;87758;-50
2023/09/04 10:50:30;;;;;;;;;;;21.10;53.90;;;;;;4994448;28;87273;-51
2023/09/04 10:53:00;;;;;;;;;;;21.10;53.80;;;;;;4988230;28;87220;-50
2023/09/04 10:55:26;;;;;;;;;;;21.10;53.90;;;;;;4989054;28;89168;-47
2023/09/04 10:57:53;;;;;;;;;;;21.10;53.90;;;;;;4993934;28;87562;-53
2023/09/04 11:00:35;;;;;;;;;;;21.00;54.10;;;;;;4993051;28;88923;-55
2023/09/04 11:03:13;;;;;;;;;;;21.00;53.90;;;;;;4992947;28;88244;-53
2023/09/04 11:05:58;;;;;;;;;;;21.10;54.10;;;;;;4993702;28;88904;-54
2023/09/04 11:08:27;;;;;;;;;;;21.00;54.20;;;;;;4995547;28;88080;-50
2023/09/04 11:10:58;;;;;;;;;;;21.00;54.20;;;;;;4989704;28;87338;-48
2023/09/04 11:13:25;;;;;;;;;;;21.00;54.20;;;;;;4996558;28;88030;-52
2023/09/04 11:15:56;;;;;;;;;;;21.00;54.20;;;;;;4992221;28;88696;-49
2023/09/04 11:18:27;;;;;;;;;;;20.90;54.20;;;;;;4993368;28;88274;-51
2023/09/04 11:20:54;;;;;;;;;;;21.00;54.30;;;;;;4993446;28;90924;-49
2023/09/04 11:23:19;;;;;;;;;;;20.90;54.30;;;;;;4989708;28;87958;-53
2023/09/04 11:25:46;;;;;;;;;;;20.90;54.30;;;;;;4994193;28;87160;-48
2023/09/04 11:28:12;;;;;;;;;;;20.90;54.30;;;;;;4991483;28;88060;-55
2023/09/04 11:30:38;;;;;;;;;;;20.90;54.20;;;;;;4990844;28;87153;-53
2023/09/04 11:33:03;;;;;;;;;;;20.90;54.30;;;;;;4990145;28;87658;-52
2023/09/04 11:35:29;;;;;;;;;;;20.90;54.30;;;;;;4993617;28;88395;-54
2023/09/04 11:37:56;;;;;;;;;;;21.00;54.30;;;;;;4992274;28;86422;-49
2023/09/04 11:40:29;;;;;;;;;;;20.90;54.40;;;;;;4995242;28;88218;-49
2023/09/04 11:42:55;;;;;;;;;;;20.90;54.60;;;;;;4990791;28;88131;-53
2023/09/04 11:45:24;;;;;;;;;;;20.90;54.60;;;;;;4994652;28;88079;-52
2023/09/04 11:47:50;;;;;;;;;;;20.90;54.50;;;;;;4994838;28;88534;-53
2023/09/04 11:50:16;;;;;;;;;;;21.00;54.50;;;;;;4986406;28;87331;-53
2023/09/04 11:52:42;;;;;;;;;;;20.90;54.70;;;;;;4999604;28;90775;-50
2023/09/04 11:55:09;;;;;;;;;;;20.90;54.70;;;;;;4998489;28;89863;-54
2023/09/04 11:57:35;;;;;;;;;;;20.90;54.50;;;;;;4988055;28;87191;-50
2023/09/04 12:00:00;;;;;;;;;;;20.90;54.60;;;;;;4988113;28;87954;-52
2023/09/04 12:02:26;;;;;;;;;;;20.90;54.70;;;;;;4993569;28;87659;-55
2023/09/04 12:04:56;;;;;;;;;;;20.90;54.80;;;;;;4991393;28;87213;-49
2023/09/04 12:07:21;;;;;;;;;;;20.90;55.10;;;;;;4990348;28;87610;-50
2023/09/04 12:09:47;;;;;;;;;;;20.90;55.20;;;;;;4991422;28;89571;-51
2023/09/04 12:12:13;;;;;;;;;;;20.80;55.20;;;;;;4992000;28;88622;-52
2023/09/04 12:14:43;;;;;;;;;;;20.80;55.20;;;;;;4993838;28;88058;-51
2023/09/04 12:17:10;;;;;;;;;;;20.80;55.30;;;;;;4989949;28;87142;-52
2023/09/04 12:19:36;;;;;;;;;;;20.80;55.00;;;;;;4992272;28;87637;-54
2023/09/04 12:22:14;;;;;;;;;;;20.80;55.20;;;;;;4992434;28;88413;-53
2023/09/04 12:24:40;;;;;;;;;;;20.80;55.30;;;;;;4986604;28;87180;-52
2023/09/04 12:27:05;;;;;;;;;;;20.80;55.30;;;;;;4992028;28;88106;-52
2023/09/04 12:29:31;;;;;;;;;;;20.80;55.20;;;;;;4993488;28;88090;-53
2023/09/04 12:31:58;;;;;;;;;;;20.80;55.20;;;;;;4999270;28;87085;-51
2023/09/04 12:34:25;;;;;;;;;;;20.80;55.50;;;;;;4989199;28;90356;-48
2023/09/04 12:36:53;;;;;;;;;;;20.80;55.70;;;;;;4997338;28;87253;-52
2023/09/04 12:39:19;;;;;;;;;;;20.70;55.60;;;;;;4994001;28;87693;-53
2023/09/04 12:41:51;;;;;;;;;;;20.70;55.50;;;;;;4990569;28;88563;-54
2023/09/04 12:44:17;;;;;;;;;;;20.80;55.50;;;;;;4990883;28;87208;-50
2023/09/04 12:46:42;;;;;;;;;;;20.80;55.50;;;;;;4992628;28;87682;-52
2023/09/04 12:49:08;;;;;;;;;;;20.80;55.40;;;;;;4995266;28;89899;-52
2023/09/04 12:51:33;;;;;;;;;;;20.80;55.30;;;;;;4998979;28;86956;-48
2023/09/04 12:53:59;;;;;;;;;;;20.80;55.20;;;;;;4988865;28;88163;-51
2023/09/04 12:56:24;;;;;;;;;;;20.70;55.30;;;;;;4991891;28;87227;-52
2023/09/04 12:58:50;;;;;;;;;;;20.80;55.40;;;;;;4995022;28;88035;-53
2023/09/04 13:01:15;;;;;;;;;;;20.70;55.50;;;;;;5010396;28;91206;-46
2023/09/04 13:03:41;;;;;;;;;;;20.70;55.40;;;;;;4993319;28;87240;-50
2023/09/04 13:06:07;;;;;;;;;;;20.70;55.50;;;;;;4995894;28;87779;-50
2023/09/04 13:08:32;;;;;;;;;;;20.70;55.50;;;;;;4994211;28;88209;-53
2023/09/04 13:10:58;;;;;;;;;;;20.70;55.50;;;;;;4993312;28;87654;-51
2023/09/04 13:13:24;;;;;;;;;;;20.70;55.50;;;;;;4995100;28;88093;-52
2023/09/04 13:15:50;;;;;;;;;;;20.70;55.50;;;;;;4993903;28;86285;-50
2023/09/04 13:18:15;;;;;;;;;;;20.70;55.60;;;;;;4993985;28;88288;-49
2023/09/04 13:20:41;;;;;;;;;;;20.60;55.70;;;;;;4989048;28;88841;-50
2023/09/04 13:23:07;;;;;;;;;;;20.60;55.70;;;;;;4990756;28;88142;-50
2023/09/04 13:25:32;;;;;;;;;;;20.70;55.70;;;;;;4991828;28;90401;-48
2023/09/04 13:27:58;;;;;;;;;;;20.70;55.70;;;;;;4997625;28;88409;-52
2023/09/04 13:30:23;;;;;;;;;;;20.60;55.70;;;;;;4991164;28;88224;-50
2023/09/04 13:32:49;;;;;;;;;;;20.60;55.90;;;;;;4994562;28;87602;-53
2023/09/04 13:35:15;;;;;;;;;;;20.60;56.20;;;;;;4996849;28;88028;-51
2023/09/04 13:37:41;;;;;;;;;;;20.60;56.20;;;;;;4995736;28;87139;-48
2023/09/04 13:40:06;;;;;;;;;;;20.60;56.20;;;;;;4991899;28;88818;-48
2023/09/04 13:42:32;;;;;;;;;;;20.60;56.40;;;;;;4991693;28;87100;-53
2023/09/04 13:44:58;;;;;;;;;;;20.50;56.40;;;;;;4994387;28;87823;-53
2023/09/04 13:47:25;;;;;;;;;;;20.50;56.50;;;;;;4989485;28;88970;-52
2023/09/04 13:49:52;;;;;;;;;;;20.60;56.50;;;;;;4989264;28;88154;-48
2023/09/04 13:52:18;;;;;;;;;;;20.60;56.40;;;;;;4994271;28;87368;-52
2023/09/04 13:54:43;;;;;;;;;;;20.60;56.20;;;;;;4995636;28;89441;-50
2023/09/04 13:57:09;;;;;;;;;;;20.60;56.30;;;;;;4997120;28;88147;-51
2023/09/04 13:59:34;;;;;;;;;;;20.50;56.20;;;;;;4988810;28;88445;-49
2023/09/04 14:02:00;;;;;;;;;;;20.60;56.20;;;;;;4994961;28;87024;-54
2023/09/04 14:04:26;;;;;;;;;;;20.50;56.50;;;;;;4992390;28;87526;-50
2023/09/04 14:06:51;;;;;;;;;;;20.50;56.60;;;;;;4990941;28;88228;-49
2023/09/04 14:09:17;;;;;;;;;;;20.40;56.70;;;;;;4992098;28;87382;-48
2023/09/04 14:11:42;;;;;;;;;;;20.50;56.60;;;;;;4993468;28;88033;-49